Nederlandse vliegveldverwachtingen (TAF)

Luchtvaartmeteorologische informatie voor operationeel gebruik en vluchtvoorbereiding is beschikbaar op www.luchtvaartmeteo.nl.

ZCZC
FC231300 EHWO     WOENSDRECHT/WOENSDRECHT   NLD   19 m.
TAF EHWO 231300Z NIL=

ZCZC
FC231700 EHGR RRB GILZE-RIJEN/GILZE-RIJEN   NLD   14 m.
TAF EHGR 231738Z 2318/2406 09005KT 9000 BKN011
    BECMG 2318/2320 VRB02KT 4500 BR BKN005
    PROB30 TEMPO 2320/2402 2000 BR BKN003
    BECMG 2402/2405 0800 FG=

ZCZC
FC231700 EHKD RRC DE KOOY/DE KOOY   NLD   1 m.
TAF EHKD 231752Z 2318/2406 21004KT 9000 SCT010 BKN014
    TEMPO 2318/2406 3500 BR SCT003 BKN005
    PROB30 TEMPO 2402/2406 0800 FG=

ZCZC
FC231700 EHLW RRD LEEUWARDEN/LEEUWARDEN   NLD   1 m.
TAF EHLW 231752Z 2318/2406 20005KT 6000 BKN007
    PROB40 TEMPO 2318/2403 2000 BKN002
    PROB30 TEMPO 2402/2406 0800 FG BKN001=

ZCZC
FC231700 EHVK RRE VOLKEL/VOLKEL   NLD   21 m.
TAF EHVK 231756Z 2318/2406 08005KT 8000 BKN008
    TEMPO 2318/2403 3000 BR BKN004
    BECMG 2319/2321 VRB03KT
    BECMG 2402/2405 0600 FG FZFG NSC=

ZCZC
FT231700 EHAM     AMSTERDAM/SCHIPHOL   NLD   -3 m.
TAF EHAM 231656Z 2318/2424 16004KT 9999 SCT015
    BECMG 2318/2320 6000 MIFG
    BECMG 2320/2322 2000 BCFG
    PROB30 2322/2409 0400 FG BKN001
    PROB40 TEMPO 2322/2411 7000 NSW BKN015
    BECMG 2408/2411 21006KT 5000 BR BKN025
    BECMG 2411/2413 8000 NSW
    PROB30 TEMPO 2416/2424 4000 -DZ BKN012=

ZCZC
FT231700 EHBK     MAASTRICHT/MAASTRICHT-AACHEN   NLD   114 m.
TAF EHBK 231721Z 2318/2424 08008KT 6000 BKN004
    BECMG 2318/2321 VRB03KT 2000 BR
    BECMG 2321/2324 0400 FZFG VV001
    BECMG 2409/2412 6000 NSW BKN004
    BECMG 2412/2415 9000 SCT012
    PROB30 2412/2418 BKN012
    BECMG 2417/2420 4000 BR
    PROB40 2420/2424 0400 FZFG VV001=

ZCZC
FT231700 EHLE     LELYSTAD/LELYSTAD   NLD   -3 m.
TAF EHLE 231702Z 2318/2424 16004KT 2500 BR SCT012
    BECMG 2318/2320 1200 BCFG
    PROB40 2319/2410 0400 FG BKN001
    PROB30 TEMPO 2319/2411 6000 NSW BKN012
    BECMG 2408/2411 21006KT 5000 BR BKN025
    BECMG 2411/2413 8000 NSW
    PROB30 TEMPO 2416/2424 4000 -DZ BKN012=

ZCZC
FT231700 EHRD     ROTTERDAM/THE HAGUE AIRPORT   NLD   -5 m.
TAF EHRD 231655Z 2318/2424 11004KT 9999 SCT015
    BECMG 2318/2320 4000 MIFG
    BECMG 2320/2322 1200 BCFG
    PROB30 2322/2409 0400 FG BKN001
    PROB40 TEMPO 2322/2411 7000 NSW BKN015
    BECMG 2408/2411 21006KT 5000 BR BKN025
    BECMG 2411/2413 8000 NSW=

ZCZC
FT231700 EHEH     EINDHOVEN/EINDHOVEN   NLD   22 m.
TAF EHEH 231750Z 2318/2424 08005KT 5000 BR BKN006
    TEMPO 2318/2403 3000 BKN004
    BECMG 2319/2321 VRB03KT
    BECMG 2401/2404 0600 FZFG FG BKN000
    PROB30 TEMPO 2403/2408 0300
    BECMG 2409/2412 1500 BR BKN002
    BECMG 2412/2415 4000 BKN005
    PROB40 2413/2424 6000 NSW BKN012=

ZCZC
FT231700 EHGG AAA GRONINGEN/EELDE   NLD   5 m.
TAF AMD EHGG 231833Z 2318/2424 21005KT 1500 BR OVC001
    PROB40 2318/2409 0400 FG VV002
    BECMG 2409/2412 9000 NSW BKN012
    BECMG 2412/2415 7000 BKN008
    PROB40 TEMPO 2415/2424 2500 -DZ BKN004=

23/01/2020 19.45 uur LT